Flight Track Log - Related Links

Times and Time Zones

All times are in EDT time to prevent confusion due to time zone crossing. See the N589H flight status page for this flight to view local times or setup timezone preferences in your user account.

Time Position Orientation Groundspeed Altitude Reporting Facility
EDT Latitude Longitude Course Direction KTS MPH feet Rate Location/Type
Thu 09:32:51 AM 26.7397 -80.2219 50° Northeast 195 224 4,300  Level Miami Center
Thu 09:33:53 AM 26.7836 -80.1967 27° Northeast 176 203 6,200 1,902 Climbing Miami Center
Thu 09:34:54 AM 26.8072 -80.1436 63° Northeast 190 219 8,200 1,561 Climbing Miami Center
Thu 09:35:56 AM 26.8167 -80.0764 81° East 207 238 9,400 1,258 Climbing Miami Center
Thu 09:36:58 AM 26.8242 -79.9975 84° East 240 276 10,800 1,659 Climbing Miami Center
Thu 09:37:00 AM 27.0092 -79.5624 56° Northeast  Level FlightAware Approximate
Thu 09:37:59 AM 26.8592 -79.9325 59° Northeast 234 269 12,800  Level Miami Center
Thu 09:38:00 AM 27.0658 -79.4734 50° Northeast  Level FlightAware Approximate
Thu 09:39:01 AM 26.8931 -79.8728 58° Northeast 234 269 14,200  Level Miami Center
Thu 09:40:03 AM 26.9319 -79.8058 57° Northeast 241 277 15,900 1,463 Climbing Miami Center
Thu 09:41:04 AM 26.9706 -79.7381 57° Northeast 244 281 17,200 1,268 Climbing Miami Center
Thu 09:42:06 AM 27.0108 -79.6686 57° Northeast 250 288 18,500 1,258 Climbing Miami Center
Thu 09:43:08 AM 27.0633 -79.6189 40° Northeast 257 296 19,800 1,220 Climbing Miami Center
Thu 09:44:09 AM 27.1225 -79.5644 39° Northeast 261 300 21,000 1,122 Climbing Miami Center
Thu 09:45:11 AM 27.1831 -79.5078 40° Northeast 267 307 22,100 1,065 Climbing Miami Center
Thu 09:46:13 AM 27.2442 -79.4536 38° Northeast 269 310 23,200 976 Climbing Miami Center
Thu 09:47:14 AM 27.3069 -79.3969 39° Northeast 274 315 24,100 829 Climbing Miami Center
Thu 09:48:16 AM 27.3681 -79.3442 37° Northeast 283 326 24,900 774 Climbing Miami Center
Thu 09:49:18 AM 27.4328 -79.2867 38° Northeast 283 326 25,700 726 Climbing Miami Center
Thu 09:50:20 AM 27.4986 -79.2272 39° Northeast 286 329 26,400 677 Climbing Miami Center
Thu 09:51:22 AM 27.5667 -79.1692 37° Northeast 293 337 27,100 683 Climbing Miami Center
Thu 09:52:23 AM 27.6408 -79.1164 32° Northeast 301 346 27,800 683 Climbing Miami Center
Thu 09:53:25 AM 27.7161 -79.0814 22° Northeast 301 346 28,500 629 Climbing Miami Center
Thu 09:54:27 AM 27.7964 -79.0400 25° Northeast 305 351 29,100 649 Climbing Miami Center
Thu 09:56:00 AM 27.9226 -78.9664 28° Northeast  Level FlightAware Approximate
Thu 09:56:30 AM 27.9469 -78.9661 28° Northeast 302 348 30,500  Level Miami Center
Thu 09:57:32 AM 28.0244 -78.9306 22° Northeast 301 346 30,900 194 Climbing Miami Center
Thu 09:58:34 AM 28.1047 -78.8900 24° Northeast 316 364 30,900  Level Miami Center
Thu 09:59:36 AM 28.2042 -78.8425 23° Northeast 320 368 30,900  Level Miami Center
Thu 10:01:40 AM 28.3850 -78.7939 North 343 395 30,900  Level Miami Center
Thu 10:02:42 AM 28.4794 -78.7806 North 345 397 30,900  Level Miami Center
Thu 10:03:44 AM 28.5739 -78.7669 North 344 396 30,900  Level Miami Center
Thu 10:04:45 AM 28.6731 -78.7544 North 345 397 30,900  Level Miami Center
Thu 10:05:47 AM 28.7842 -78.7369 North 344 396 30,900  Level Miami Center
Thu 10:06:49 AM 28.8806 -78.7233 North 348 400 30,900  Level Miami Center
Thu 10:07:51 AM 28.9753 -78.7019 11° North 348 400 30,900  Level Miami Center
Thu 10:08:53 AM 29.0703 -78.6733 15° North 349 402 30,900  Level Miami Center
Thu 10:09:55 AM 29.1653 -78.6478 13° North 349 402 30,900  Level Miami Center
Thu 10:10:57 AM 29.2600 -78.6197 14° North 351 404 30,900  Level Miami Center
Thu 10:13:01 AM 29.4711 -78.5606 14° North 353 406 30,900  Level Miami Center
Thu 10:14:03 AM 29.5683 -78.5342 13° North 356 410 30,900  Level Miami Center
Thu 10:15:04 AM 29.6653 -78.5069 14° North 357 411 30,900  Level Miami Center
Thu 10:16:06 AM 29.7608 -78.4783 15° North 356 410 30,900  Level Miami Center
Thu 10:17:08 AM 29.8600 -78.4656 North 358 412 30,900  Level Miami Center
Thu 10:18:10 AM 29.9792 -78.4511 North 358 412 30,900  Level Miami Center
Thu 10:19:12 AM 30.0647 -78.4403 North 358 412 30,900  Level Miami Center
Thu 10:20:20 AM 30.1928 -78.4375 North 358 412 30,900  Level Jacksonville Center
Thu 10:21:20 AM 30.2831 -78.4478 354° North 348 400 30,900  Level Jacksonville Center
Thu 10:23:20 AM 30.4797 -78.4628 357° North 353 406 30,900  Level Jacksonville Center
Thu 10:24:20 AM 30.5886 -78.4719 356° North 361 415 30,900  Level Jacksonville Center
Thu 10:25:20 AM 30.6828 -78.4797 356° North 350 403 30,900  Level Jacksonville Center
Thu 10:26:20 AM 30.7833 -78.4872 356° North 353 406 30,900  Level Jacksonville Center
Thu 10:27:20 AM 30.8836 -78.4944 356° North 360 414 30,900  Level Jacksonville Center
Thu 10:28:20 AM 30.9842 -78.5019 356° North 352 405 30,900  Level Jacksonville Center
Thu 10:29:20 AM 31.0950 -78.5089 357° North 357 411 30,900  Level Jacksonville Center
Thu 10:30:20 AM 31.1933 -78.5189 355° North 356 410 30,900  Level Jacksonville Center
Thu 10:31:20 AM 31.2958 -78.5264 356° North 359 413 30,900  Level Jacksonville Center
Thu 10:32:20 AM 31.3944 -78.5339 356° North 360 414 30,900  Level Jacksonville Center
Thu 10:33:20 AM 31.4947 -78.5414 356° North 355 409 30,900  Level Jacksonville Center
Thu 10:35:20 AM 31.6917 -78.5589 356° North 350 403 30,900  Level Jacksonville Center
Thu 10:37:20 AM 31.8906 -78.5742 356° North 356 410 30,900  Level Jacksonville Center
Thu 10:38:20 AM 31.9908 -78.5817 356° North 356 410 30,900  Level Jacksonville Center
Thu 10:39:20 AM 32.0914 -78.5867 358° North 351 404 30,900  Level Jacksonville Center
Thu 10:40:20 AM 32.1917 -78.5967 355° North 351 404 30,900  Level Jacksonville Center
Thu 10:41:20 AM 32.2964 -78.6042 357° North 356 410 30,900  Level Jacksonville Center
Thu 10:42:20 AM 32.3969 -78.6117 356° North 361 415 30,900  Level Jacksonville Center
Thu 10:43:20 AM 32.4972 -78.6192 356° North 361 415 30,900  Level Jacksonville Center
Thu 10:44:20 AM 32.5997 -78.6267 356° North 366 421 30,900  Level Jacksonville Center
Thu 10:45:20 AM 32.7003 -78.6344 356° North 366 421 30,900  Level Jacksonville Center
Thu 10:46:20 AM 32.8028 -78.6419 356° North 366 421 30,900  Level Jacksonville Center
Thu 10:47:20 AM 32.8844 -78.6503 355° North 366 421 30,900  Level Jacksonville Center
Thu 10:48:20 AM 32.9911 -78.6578 357° North 366 421 30,900  Level Jacksonville Center
Thu 10:49:20 AM 33.0917 -78.6653 356° North 366 421 30,900  Level Jacksonville Center
Thu 10:50:20 AM 33.1922 -78.6756 355° North 366 421 30,900  Level Jacksonville Center
Thu 10:51:20 AM 33.2903 -78.6808 357° North 361 415 30,900  Level Jacksonville Center
Thu 10:52:20 AM 33.3908 -78.6933 354° North 361 415 30,900  Level Jacksonville Center
Thu 10:53:20 AM 33.4914 -78.7011 356° North 361 415 30,900  Level Jacksonville Center
Thu 10:54:20 AM 33.5883 -78.6717 14° North 354 407 30,900  Level Jacksonville Center
Thu 10:55:20 AM 33.6853 -78.6369 17° North 359 413 30,900  Level Jacksonville Center
Thu 10:57:21 AM 33.8775 -78.5933 11° North 352 405 30,900  Level Washington Center
Thu 10:58:19 AM 33.9761 -78.5744 North 352 405 30,900  Level Washington Center
Thu 11:00:20 AM 34.1817 -78.5342 12° North 352 405 30,900  Level Washington Center
Thu 11:01:21 AM 34.2800 -78.5150 North 352 405 30,900  Level Washington Center
Thu 11:02:21 AM 34.3767 -78.4958 North 352 405 30,900  Level Washington Center
Thu 11:03:18 AM 34.4750 -78.4764 North 352 405 30,900  Level Washington Center
Thu 11:04:20 AM 34.5758 -78.4497 12° North 358 412 30,900  Level Washington Center
Thu 11:05:21 AM 34.6703 -78.4303 10° North 358 412 30,900  Level Washington Center
Thu 11:06:19 AM 34.7708 -78.4136 North 353 406 30,900  Level Washington Center
Thu 11:07:19 AM 34.8653 -78.3917 11° North 353 406 30,900  Level Washington Center
Thu 11:08:20 AM 34.9636 -78.3697 10° North 353 406 30,900  Level Washington Center
Thu 11:09:21 AM 35.0622 -78.3503 North 353 406 30,900  Level Washington Center
Thu 11:10:19 AM 35.1611 -78.3206 14° North 353 406 30,900  Level Washington Center
Thu 11:11:20 AM 35.2558 -78.2806 19° North 358 412 30,900  Level Washington Center
Thu 11:12:21 AM 35.3569 -78.2381 19° North 368 423 30,900  Level Washington Center
Thu 11:13:18 AM 35.4539 -78.1981 19° North 368 423 30,900  Level Washington Center
Thu 11:14:19 AM 35.5422 -78.1600 19° North 368 423 30,900  Level Washington Center
Thu 11:15:21 AM 35.6411 -78.1222 17° North 368 423 30,900  Level Washington Center
Thu 11:16:19 AM 35.7400 -78.0794 19° North 368 423 30,900  Level Washington Center
Thu 11:18:20 AM 35.9378 -77.9983 20° North 368 423 30,900  Level Washington Center
Thu 11:19:20 AM 36.0367 -77.9578 18° North 368 423 30,900 -198 Level Washington Center
Thu 11:20:21 AM 36.1378 -77.9144 19° North 368 423 30,500 -704 Descending Washington Center
Thu 11:22:19 AM 36.3481 -77.8278 18° North 386 444 28,800 -910 Descending Washington Center
Thu 11:23:19 AM 36.4553 -77.7844 18° North 392 451 27,800 -744 Descending Washington Center
Thu 11:24:20 AM 36.5625 -77.7358 20° North 398 458 27,300 -264 Descending Washington Center
Thu 11:26:21 AM 36.7742 -77.6897 10° North 385 443 27,000 -134 Descending Washington Center
Thu 11:27:19 AM 36.8911 -77.6719 North 385 443 26,900 -305 Descending Washington Center
Thu 11:28:19 AM 36.9833 -77.6536 North 385 443 26,400 -744 Descending Washington Center
Thu 11:29:20 AM 37.1047 -77.6336 North 391 450 25,400 -934 Descending Washington Center
Thu 11:30:21 AM 37.2031 -77.6153 North 391 450 24,500 -1,008 Descending Washington Center
Thu 11:31:19 AM 37.3222 -77.5950 North 391 450 23,400 -1,017 Descending Washington Center
Thu 11:32:19 AM 37.4100 -77.5789 North 379 436 22,500 -1,289 Descending Washington Center
Thu 11:33:20 AM 37.5211 -77.5583 North 369 425 20,800 -1,721 Descending Washington Center
Thu 11:34:21 AM 37.6108 -77.5450 North 369 425 19,000 -1,815 Descending Washington Center
Thu 11:35:19 AM 37.7175 -77.5239 North 357 411 17,200 -1,714 Descending Washington Center
Thu 11:36:20 AM 37.8014 -77.5078 North 349 402 15,600 -1,686 Descending Washington Center
Thu 11:37:20 AM 37.8997 -77.4917 North 337 388 13,800 -1,636 Descending Washington Center
Thu 11:38:21 AM 37.9792 -77.4753 North 327 376 12,300 -1,563 Descending Washington Center
Thu 11:39:19 AM 38.0753 -77.4672 North 320 368 10,700 -1,160 Descending Washington Center
Thu 11:40:20 AM 38.1567 -77.4533 North 307 353 10,000 -393 Descending Washington Center
Thu 11:41:21 AM 38.2383 -77.4369 North 302 348 9,900 -50 Descending Washington Center
Thu 11:42:21 AM 38.3200 -77.4203 North 296 341 9,900 -153 Level Washington Center
Thu 11:43:19 AM 38.4014 -77.4039 North 291 335 9,600 -900 Descending Washington Center
Thu 11:45:21 AM 38.5625 -77.3733 North 291 335 7,200 -1,897 Descending Washington Center
Thu 11:47:13 AM 38.6500 -77.4667 320° Northwest 194 223 2,200 -2,150 Descending Potomac TRACON
Thu 11:48:14 AM 38.6833 -77.4833 339° North 135 155 1,000 -1,180 Descending Potomac TRACON
Thu 11:50:00 AM 38.7167 -77.5000 322° Northwest  Level FlightAware Approximate
Thu 11:57:00 AM 38.7210 -77.5151 322° Northwest  Level Estimated
Thu 11:58:00 AM 38.7210 -77.5151 322° Northwest  Level Estimated

Login

Don't have an account? Register now (free) for customized features, flight alerts, and more!